Time;durP1;ratioP1;P1;durP2;ratioP2;P2;SDS_P1;SDS_P2;PMS_P1;PMS_P2;Temp;Humidity;BMP_temperature;BMP_pressure;BME280_temperature;BME280_humidity;BME280_pressure;Samples;Min_cycle;Max_cycle;Signal;HPM_P1;HPM_P2
2023/03/10 00:01:24;;;;;;;6.85;3.45;;;3.10;99.90;;;;;;5000517;28;20513;-74
2023/03/10 00:03:51;;;;;;;5.65;2.78;;;3.10;99.90;;;;;;5004662;28;20041;-75
2023/03/10 00:06:19;;;;;;;10.20;4.20;;;3.10;99.90;;;;;;5002213;28;20033;-74
2023/03/10 00:08:45;;;;;;;8.18;3.40;;;3.10;99.90;;;;;;5004285;28;20041;-74
2023/03/10 00:11:12;;;;;;;7.85;3.67;;;3.10;99.90;;;;;;5003402;28;20100;-74
2023/03/10 00:13:38;;;;;;;9.35;4.03;;;3.10;99.90;;;;;;4999183;28;20502;-74
2023/03/10 00:16:04;;;;;;;7.35;3.72;;;3.10;99.90;;;;;;4998014;28;20068;-74
2023/03/10 00:18:30;;;;;;;9.32;3.45;;;3.10;99.90;;;;;;5007699;28;20026;-74
2023/03/10 00:20:56;;;;;;;6.75;3.28;;;3.10;99.90;;;;;;5000782;28;20093;-72
2023/03/10 00:23:22;;;;;;;7.03;3.42;;;3.20;99.90;;;;;;5001741;28;20498;-73
2023/03/10 00:25:59;;;;;;;7.05;3.30;;;3.10;99.90;;;;;;5004959;28;20034;-74
2023/03/10 00:28:26;;;;;;;5.78;3.15;;;3.10;99.90;;;;;;5006560;28;20162;-73
2023/03/10 00:31:04;;;;;;;7.75;3.80;;;3.20;99.90;;;;;;5003875;28;20038;-74
2023/03/10 00:33:34;;;;;;;5.65;3.00;;;3.20;99.90;;;;;;5002506;28;20048;-74
2023/03/10 00:36:20;;;;;;;5.10;2.63;;;3.10;99.90;;;;;;4999855;28;20037;-74
2023/03/10 00:38:47;;;;;;;7.43;3.25;;;3.10;99.90;;;;;;5001826;28;20060;-74
2023/03/10 00:41:15;;;;;;;4.05;2.55;;;3.20;99.90;;;;;;5002310;28;20037;-74
2023/03/10 00:43:41;;;;;;;5.32;2.95;;;3.20;99.90;;;;;;5000676;28;20038;-73
2023/03/10 00:46:07;;;;;;;4.90;2.78;;;3.20;99.90;;;;;;5003050;28;20037;-74
2023/03/10 00:48:33;;;;;;;8.52;2.80;;;3.20;99.90;;;;;;5001290;28;20038;-74
2023/03/10 00:50:59;;;;;;;5.40;2.97;;;3.20;99.90;;;;;;5004298;28;20042;-74
2023/03/10 00:53:25;;;;;;;6.90;3.92;;;3.20;99.90;;;;;;5004336;28;20091;-73
2023/03/10 00:56:07;;;;;;;5.85;2.90;;;3.20;99.90;;;;;;5002666;28;20030;-74
2023/03/10 00:58:33;;;;;;;7.03;3.53;;;3.10;99.90;;;;;;5002102;28;20093;-75
2023/03/10 01:01:00;;;;;;;6.10;2.60;;;3.20;99.90;;;;;;5004004;28;20668;-73
2023/03/10 01:03:26;;;;;;;11.90;4.00;;;3.20;99.90;;;;;;5003129;28;20127;-74
2023/03/10 01:05:53;;;;;;;5.05;2.88;;;3.20;99.90;;;;;;5001531;28;20631;-75
2023/03/10 01:08:19;;;;;;;5.82;2.88;;;3.20;99.90;;;;;;5002822;28;20065;-74
2023/03/10 01:10:45;;;;;;;6.13;3.05;;;3.20;99.90;;;;;;5001985;28;20062;-74
2023/03/10 01:13:12;;;;;;;4.82;2.72;;;3.20;99.90;;;;;;5001055;28;20061;-72
2023/03/10 01:15:39;;;;;;;6.53;2.60;;;3.20;99.90;;;;;;5002241;28;20457;-73
2023/03/10 01:18:04;;;;;;;4.85;2.67;;;3.20;99.90;;;;;;5000564;28;20034;-73
2023/03/10 01:20:31;;;;;;;5.82;3.10;;;3.20;99.90;;;;;;5005116;28;20032;-74
2023/03/10 01:22:57;;;;;;;7.47;3.38;;;3.20;99.90;;;;;;5001180;28;20379;-74
2023/03/10 01:25:22;;;;;;;4.32;2.63;;;3.20;99.90;;;;;;5004528;28;20037;-73
2023/03/10 01:27:48;;;;;;;6.15;3.25;;;3.30;99.90;;;;;;5006149;28;20109;-74
2023/03/10 01:30:14;;;;;;;4.50;2.72;;;3.20;99.90;;;;;;5002269;28;20030;-74
2023/03/10 01:32:40;;;;;;;4.93;2.63;;;3.20;99.90;;;;;;4998603;28;20033;-73
2023/03/10 01:35:06;;;;;;;4.57;2.75;;;3.20;99.90;;;;;;5003044;28;20030;-74
2023/03/10 01:37:32;;;;;;;5.57;2.95;;;3.20;99.90;;;;;;5004916;28;20091;-73
2023/03/10 01:39:57;;;;;;;5.40;3.03;;;3.20;99.90;;;;;;5003165;28;20034;-74
2023/03/10 01:42:23;;;;;;;4.20;2.60;;;3.20;99.90;;;;;;5000425;28;20033;-74
2023/03/10 01:45:09;;;;;;;4.60;2.47;;;3.20;99.90;;;;;;5003492;28;20026;-74
2023/03/10 01:47:35;;;;;;;4.30;2.58;;;3.10;99.90;;;;;;5002754;28;20042;-76
2023/03/10 01:50:03;;;;;;;4.75;2.50;;;3.20;99.90;;;;;;5003166;28;20168;-73
2023/03/10 01:52:31;;;;;;;4.78;2.60;;;3.20;99.90;;;;;;5003483;28;20033;-73
2023/03/10 01:55:05;;;;;;;4.70;2.60;;;3.20;99.90;;;;;;4999355;28;20183;-73
2023/03/10 01:57:36;;;;;;;5.60;2.97;;;3.20;99.90;;;;;;5003829;28;20161;-73
2023/03/10 02:00:11;;;;;;;4.80;2.38;;;3.20;99.90;;;;;;5002406;28;20044;-73
2023/03/10 02:02:56;;;;;;;4.95;2.67;;;3.20;99.90;;;;;;5011798;28;20042;-73
2023/03/10 02:05:23;;;;;;;5.10;2.72;;;3.10;99.90;;;;;;5002157;28;20045;-73
2023/03/10 02:07:49;;;;;;;5.95;3.22;;;3.10;99.90;;;;;;5020756;28;20049;-72
2023/03/10 02:10:15;;;;;;;4.75;2.58;;;3.20;99.90;;;;;;4998861;28;20045;-74
2023/03/10 02:12:42;;;;;;;5.28;2.97;;;3.20;99.90;;;;;;4999222;28;20034;-75
2023/03/10 02:15:09;;;;;;;6.25;2.67;;;3.20;99.90;;;;;;5002985;28;20100;-74
2023/03/10 02:17:35;;;;;;;4.47;2.45;;;3.20;99.90;;;;;;5005323;28;20034;-73
2023/03/10 02:20:03;;;;;;;5.93;3.03;;;3.20;99.90;;;;;;4998795;28;20059;-73
2023/03/10 02:22:29;;;;;;;4.70;2.72;;;3.20;99.90;;;;;;5025933;28;20033;-73
2023/03/10 02:25:02;;;;;;;5.25;3.25;;;3.20;99.90;;;;;;5002441;28;20083;-74
2023/03/10 02:27:36;;;;;;;6.78;2.80;;;3.20;99.90;;;;;;5007987;28;20037;-73
2023/03/10 02:30:36;;;;;;;6.10;3.15;;;3.10;99.90;;;;;;5000779;28;20022;-73
2023/03/10 02:33:18;;;;;;;8.38;3.78;;;3.20;99.90;;;;;;5002395;28;20046;-73
2023/03/10 02:35:44;;;;;;;5.82;2.75;;;3.20;99.90;;;;;;5000891;28;20030;-74
2023/03/10 02:38:10;;;;;;;5.95;2.75;;;3.20;99.90;;;;;;5006276;28;20041;-74
2023/03/10 02:40:45;;;;;;;7.38;3.58;;;3.20;99.90;;;;;;5006018;28;20037;-74
2023/03/10 02:43:29;;;;;;;6.20;3.03;;;3.20;99.90;;;;;;5005918;28;20116;-74
2023/03/10 02:45:58;;;;;;;5.22;2.70;;;3.20;99.90;;;;;;5007843;28;20037;-73
2023/03/10 02:48:33;;;;;;;6.65;3.28;;;3.20;99.90;;;;;;5005792;28;20026;-73
2023/03/10 02:51:01;;;;;;;5.13;2.53;;;3.30;99.90;;;;;;5004762;28;20129;-74
2023/03/10 02:53:28;;;;;;;6.60;3.42;;;3.30;99.90;;;;;;5007057;28;20034;-73
2023/03/10 02:55:55;;;;;;;6.57;3.03;;;3.30;99.90;;;;;;5009284;28;20030;-73
2023/03/10 02:58:22;;;;;;;6.13;3.15;;;3.20;99.90;;;;;;5002227;28;20030;-74
2023/03/10 03:00:49;;;;;;;5.30;2.75;;;3.20;99.90;;;;;;5010258;28;20518;-73
2023/03/10 03:03:16;;;;;;;6.65;3.00;;;3.20;99.90;;;;;;5008030;28;20049;-73
2023/03/10 03:05:42;;;;;;;5.55;2.72;;;3.20;99.90;;;;;;5006158;28;20033;-73
2023/03/10 03:08:08;;;;;;;5.75;3.33;;;3.20;99.90;;;;;;5005770;28;20037;-73
2023/03/10 03:10:34;;;;;;;5.95;3.00;;;3.20;99.90;;;;;;5005372;28;20034;-73
2023/03/10 03:13:00;;;;;;;7.45;3.58;;;3.20;99.90;;;;;;5003202;28;20029;-74
2023/03/10 03:15:26;;;;;;;8.88;3.78;;;3.20;99.90;;;;;;5000246;28;20034;-73
2023/03/10 03:17:53;;;;;;;4.97;2.80;;;3.20;99.90;;;;;;5001779;28;20565;-73
2023/03/10 03:20:20;;;;;;;6.15;3.05;;;3.20;99.90;;;;;;5000162;28;20039;-75
2023/03/10 03:22:46;;;;;;;6.90;3.92;;;3.10;99.90;;;;;;5001858;28;20030;-74
2023/03/10 03:25:14;;;;;;;5.80;3.15;;;3.20;99.90;;;;;;5002574;28;20030;-75
2023/03/10 03:27:40;;;;;;;6.88;3.00;;;3.10;99.90;;;;;;5010872;28;20060;-74
2023/03/10 03:30:10;;;;;;;7.55;3.70;;;3.20;99.90;;;;;;4999476;28;20072;-73
2023/03/10 03:32:35;;;;;;;8.35;3.13;;;3.20;99.90;;;;;;5003903;28;20038;-73
2023/03/10 03:35:02;;;;;;;7.35;3.78;;;3.20;99.90;;;;;;4999648;28;20045;-75
2023/03/10 03:37:28;;;;;;;6.43;3.10;;;3.20;99.90;;;;;;5002769;28;20038;-72
2023/03/10 03:39:53;;;;;;;6.45;3.08;;;3.20;99.90;;;;;;4999853;28;20040;-73
2023/03/10 03:42:19;;;;;;;7.70;3.22;;;3.10;99.90;;;;;;5000889;28;20041;-73
2023/03/10 03:44:45;;;;;;;5.85;3.13;;;3.20;99.90;;;;;;5003187;28;20559;-73
2023/03/10 03:47:10;;;;;;;6.60;3.20;;;3.30;99.90;;;;;;4998178;28;20034;-73
2023/03/10 03:49:37;;;;;;;6.40;2.65;;;3.30;99.90;;;;;;5003653;28;20398;-75
2023/03/10 03:52:04;;;;;;;5.13;2.47;;;3.20;99.90;;;;;;5003330;28;20034;-75
2023/03/10 03:54:30;;;;;;;6.35;3.22;;;3.20;99.90;;;;;;4998871;28;20054;-72
2023/03/10 03:56:55;;;;;;;5.97;3.13;;;3.20;99.90;;;;;;4999341;28;20099;-73
2023/03/10 03:59:21;;;;;;;6.22;3.58;;;3.20;99.90;;;;;;4999894;28;20045;-73
2023/03/10 04:01:47;;;;;;;5.00;2.15;;;3.20;99.90;;;;;;5013880;28;20058;-75
2023/03/10 04:04:12;;;;;;;4.72;2.45;;;3.20;99.90;;;;;;5000190;28;20033;-74
2023/03/10 04:06:38;;;;;;;6.07;2.60;;;3.20;99.90;;;;;;4998682;28;20037;-74
2023/03/10 04:09:04;;;;;;;3.95;2.25;;;3.30;99.90;;;;;;4996349;28;20037;-73
2023/03/10 04:11:32;;;;;;;4.53;2.50;;;3.20;99.90;;;;;;4997378;28;20133;-73
2023/03/10 04:13:58;;;;;;;4.57;2.50;;;3.20;99.90;;;;;;4997747;28;20133;-75
2023/03/10 04:16:23;;;;;;;4.28;2.35;;;3.20;99.90;;;;;;5007503;28;20538;-74
2023/03/10 04:18:49;;;;;;;4.78;2.53;;;3.20;99.90;;;;;;5001555;28;20041;-73
2023/03/10 04:21:16;;;;;;;3.85;2.13;;;3.20;99.90;;;;;;4998444;28;20042;-72
2023/03/10 04:23:42;;;;;;;4.65;2.58;;;3.20;99.90;;;;;;5001271;28;20041;-72
2023/03/10 04:26:08;;;;;;;4.72;2.22;;;3.20;99.90;;;;;;5001777;28;20025;-74
2023/03/10 04:28:34;;;;;;;5.32;2.85;;;3.20;99.90;;;;;;4998845;28;20376;-72
2023/03/10 04:30:59;;;;;;;4.90;2.83;;;3.10;99.90;;;;;;5004853;28;20045;-72
2023/03/10 04:33:25;;;;;;;4.43;2.38;;;3.20;99.90;;;;;;5024017;28;20052;-75
2023/03/10 04:35:51;;;;;;;5.55;2.75;;;3.20;99.90;;;;;;5006637;28;20487;-73
2023/03/10 04:38:17;;;;;;;4.65;2.35;;;3.10;99.90;;;;;;5005908;28;20049;-73
2023/03/10 04:40:43;;;;;;;7.28;2.50;;;3.10;99.90;;;;;;4999005;28;20037;-74
2023/03/10 04:43:11;;;;;;;5.53;2.65;;;3.10;99.90;;;;;;5001989;28;20398;-75
2023/03/10 04:45:37;;;;;;;5.38;2.55;;;3.10;99.90;;;;;;5004013;28;20057;-73
2023/03/10 04:48:03;;;;;;;4.65;2.47;;;3.10;99.90;;;;;;5004289;28;20577;-75
2023/03/10 04:50:28;;;;;;;4.82;2.60;;;3.10;99.90;;;;;;5005970;28;20176;-74
2023/03/10 04:52:54;;;;;;;4.90;3.22;;;3.10;99.90;;;;;;5006868;28;20118;-73
2023/03/10 04:55:20;;;;;;;7.45;3.50;;;3.10;99.90;;;;;;5002943;28;20038;-74
2023/03/10 04:57:45;;;;;;;5.65;2.90;;;3.10;99.90;;;;;;5004914;28;20038;-73
2023/03/10 05:00:12;;;;;;;6.82;2.75;;;3.10;99.90;;;;;;5005312;28;20512;-73
2023/03/10 05:02:38;;;;;;;5.53;2.65;;;3.00;99.90;;;;;;5001761;28;20511;-72
2023/03/10 05:05:05;;;;;;;6.90;2.50;;;3.00;99.90;;;;;;5004642;28;20486;-73
2023/03/10 05:07:33;;;;;;;5.10;2.90;;;3.00;99.90;;;;;;5006483;28;20494;-72
2023/03/10 05:09:59;;;;;;;6.35;2.45;;;3.00;99.90;;;;;;5002947;28;20093;-73
2023/03/10 05:12:24;;;;;;;7.28;2.40;;;3.00;99.90;;;;;;5004171;28;20155;-73
2023/03/10 05:14:50;;;;;;;5.20;2.88;;;3.00;99.90;;;;;;4999736;28;20049;-74
2023/03/10 05:17:15;;;;;;;4.90;2.53;;;3.00;99.90;;;;;;4999678;28;20037;-74
2023/03/10 05:19:41;;;;;;;7.95;2.67;;;3.00;99.90;;;;;;5000840;28;20045;-72
2023/03/10 05:22:10;;;;;;;6.22;2.85;;;3.10;99.90;;;;;;5003970;28;20103;-74
2023/03/10 05:24:35;;;;;;;5.38;2.63;;;3.00;99.90;;;;;;5003211;28;20041;-73
2023/03/10 05:27:04;;;;;;;5.32;2.70;;;2.90;99.90;;;;;;5006905;28;20030;-73
2023/03/10 05:29:29;;;;;;;6.70;3.63;;;3.00;99.90;;;;;;4998654;28;20038;-73
2023/03/10 05:31:55;;;;;;;5.40;2.40;;;3.00;99.90;;;;;;5003784;28;20096;-75
2023/03/10 05:34:22;;;;;;;4.93;2.60;;;3.00;99.90;;;;;;5003620;28;20064;-75
2023/03/10 05:36:48;;;;;;;5.38;2.17;;;3.00;99.90;;;;;;5012439;28;20107;-74
2023/03/10 05:39:13;;;;;;;7.70;2.83;;;3.00;99.90;;;;;;5004509;28;20479;-74
2023/03/10 05:41:39;;;;;;;7.18;2.60;;;3.00;99.90;;;;;;5002359;28;20487;-75
2023/03/10 05:44:05;;;;;;;5.88;2.78;;;3.00;99.90;;;;;;5001631;28;20096;-75
2023/03/10 05:46:31;;;;;;;7.03;2.88;;;3.00;99.90;;;;;;5002723;28;20041;-73
2023/03/10 05:48:56;;;;;;;8.55;3.35;;;2.90;99.90;;;;;;4998284;28;20057;-74
2023/03/10 05:51:22;;;;;;;6.32;3.35;;;3.00;99.90;;;;;;5001401;28;20053;-73
2023/03/10 05:53:48;;;;;;;9.20;3.33;;;3.00;99.90;;;;;;5004377;28;20044;-74
2023/03/10 05:56:17;;;;;;;8.18;2.85;;;3.00;99.90;;;;;;5003166;28;20483;-74
2023/03/10 05:58:44;;;;;;;7.63;3.28;;;3.00;99.90;;;;;;5001994;28;20082;-73
2023/03/10 06:01:10;;;;;;;6.28;3.28;;;3.00;99.90;;;;;;5003963;28;20041;-75
2023/03/10 06:03:39;;;;;;;7.10;2.72;;;3.00;99.90;;;;;;5001629;28;20525;-73
2023/03/10 06:06:06;;;;;;;7.07;2.63;;;3.00;99.90;;;;;;5002083;28;20052;-73
2023/03/10 06:08:32;;;;;;;7.32;3.33;;;3.10;99.90;;;;;;5027180;28;20044;-74
2023/03/10 06:10:58;;;;;;;7.20;3.20;;;3.10;99.90;;;;;;5007450;28;20135;-75
2023/03/10 06:13:24;;;;;;;6.63;3.20;;;3.10;99.90;;;;;;5002136;28;20081;-73
2023/03/10 06:15:52;;;;;;;6.85;2.95;;;3.10;99.90;;;;;;5005757;28;20042;-74
2023/03/10 06:18:18;;;;;;;8.05;3.03;;;3.10;99.90;;;;;;5004909;28;20044;-74
2023/03/10 06:20:44;;;;;;;8.93;3.60;;;3.10;99.90;;;;;;5004409;28;20038;-74
2023/03/10 06:23:10;;;;;;;7.35;2.97;;;3.00;99.90;;;;;;4995738;28;20406;-75
2023/03/10 06:25:36;;;;;;;9.10;3.35;;;3.00;99.90;;;;;;5004650;28;20038;-73
2023/03/10 06:28:01;;;;;;;8.40;3.03;;;3.00;99.90;;;;;;5007732;28;20057;-76
2023/03/10 06:30:27;;;;;;;6.82;3.13;;;3.00;99.90;;;;;;5001374;28;20642;-73
2023/03/10 06:32:57;;;;;;;5.80;2.35;;;3.00;99.90;;;;;;5004045;28;20125;-73
2023/03/10 06:35:22;;;;;;;7.03;3.35;;;3.10;99.90;;;;;;5003604;28;20038;-73
2023/03/10 06:37:48;;;;;;;7.95;3.22;;;3.10;99.90;;;;;;5012094;28;20406;-74
2023/03/10 06:40:13;;;;;;;7.40;3.38;;;3.10;99.90;;;;;;5006576;28;20037;-74
2023/03/10 06:42:40;;;;;;;7.63;3.30;;;3.10;99.90;;;;;;5003278;28;20172;-77
2023/03/10 06:45:07;;;;;;;7.85;3.75;;;3.00;99.90;;;;;;5003222;28;20117;-73
2023/03/10 06:47:33;;;;;;;7.03;3.13;;;3.00;99.90;;;;;;5002227;28;20120;-74
2023/03/10 06:50:00;;;;;;;6.28;2.38;;;3.00;99.90;;;;;;5001402;28;20089;-73
2023/03/10 06:52:25;;;;;;;5.97;2.40;;;3.10;99.90;;;;;;5006364;28;20100;-73
2023/03/10 06:54:51;;;;;;;10.48;2.80;;;3.10;99.90;;;;;;5002537;28;20556;-74
2023/03/10 06:57:19;;;;;;;5.45;2.50;;;3.10;99.90;;;;;;5000153;28;20716;-75
2023/03/10 06:59:45;;;;;;;6.22;2.53;;;3.10;99.90;;;;;;5003285;28;20118;-74
2023/03/10 07:02:11;;;;;;;6.82;2.47;;;3.10;99.90;;;;;;5003825;28;20162;-74
2023/03/10 07:04:37;;;;;;;4.50;2.08;;;3.10;99.90;;;;;;5001401;28;20042;-73
2023/03/10 07:07:06;;;;;;;6.10;2.50;;;3.20;99.90;;;;;;5000223;28;20117;-74
2023/03/10 07:09:32;;;;;;;6.05;3.13;;;3.20;99.90;;;;;;5000182;28;20594;-74
2023/03/10 07:11:57;;;;;;;6.60;2.85;;;3.20;99.90;;;;;;4999718;28;20037;-73
2023/03/10 07:14:23;;;;;;;5.30;2.60;;;3.20;99.90;;;;;;4999382;28;20041;-73
2023/03/10 07:16:48;;;;;;;5.35;2.20;;;3.20;99.90;;;;;;5000476;28;20030;-75
2023/03/10 07:19:14;;;;;;;5.97;2.22;;;3.20;99.90;;;;;;5002771;28;20037;-73
2023/03/10 07:21:40;;;;;;;4.50;2.53;;;3.20;99.90;;;;;;5002250;28;20046;-75
2023/03/10 07:24:05;;;;;;;6.18;2.10;;;3.20;99.90;;;;;;5005257;28;20124;-74
2023/03/10 07:26:31;;;;;;;4.50;2.17;;;3.20;99.90;;;;;;5000334;28;20045;-72
2023/03/10 07:28:57;;;;;;;5.07;2.35;;;3.20;99.90;;;;;;4999799;28;20113;-75
2023/03/10 07:31:22;;;;;;;5.13;2.55;;;3.30;99.90;;;;;;5000781;28;20037;-74
2023/03/10 07:33:50;;;;;;;4.00;1.52;;;3.20;99.90;;;;;;5007557;28;20667;-74
2023/03/10 07:36:17;;;;;;;6.65;2.05;;;3.20;99.90;;;;;;5003536;28;20073;-73
2023/03/10 07:38:43;;;;;;;4.05;1.75;;;3.30;99.90;;;;;;5002459;28;20117;-74
2023/03/10 07:41:13;;;;;;;4.32;1.90;;;3.30;99.90;;;;;;4998771;28;20173;-74
2023/03/10 07:43:39;;;;;;;5.27;2.17;;;3.30;99.90;;;;;;5002218;28;20117;-73
2023/03/10 07:46:10;;;;;;;3.05;1.75;;;3.30;99.90;;;;;;5004629;28;20177;-73
2023/03/10 07:48:36;;;;;;;4.20;1.88;;;3.30;99.90;;;;;;5012228;28;20391;-74
2023/03/10 07:51:05;;;;;;;3.65;1.80;;;3.30;99.90;;;;;;5000132;28;20044;-74
2023/03/10 07:53:30;;;;;;;2.80;1.25;;;3.30;99.90;;;;;;5000124;28;20042;-75
2023/03/10 07:55:56;;;;;;;5.78;1.42;;;3.30;99.90;;;;;;5011025;28;20041;-75
2023/03/10 07:58:23;;;;;;;2.72;1.38;;;3.30;99.90;;;;;;4997843;28;20087;-74
2023/03/10 08:00:56;;;;;;;3.05;1.42;;;3.40;99.90;;;;;;4997617;28;20565;-72
2023/03/10 08:03:22;;;;;;;2.75;1.40;;;3.30;99.90;;;;;;5000058;28;20061;-72
2023/03/10 08:05:48;;;;;;;3.90;1.10;;;3.40;99.90;;;;;;4995925;28;20406;-75
2023/03/10 08:08:14;;;;;;;3.25;1.23;;;3.30;99.90;;;;;;4999096;28;20061;-73
2023/03/10 08:10:39;;;;;;;2.55;1.20;;;3.30;99.90;;;;;;4999162;28;20045;-78
2023/03/10 08:13:05;;;;;;;1.65;0.93;;;3.30;99.90;;;;;;4998091;28;20034;-73
2023/03/10 08:15:31;;;;;;;2.78;1.30;;;3.30;99.90;;;;;;4997356;28;20067;-74
2023/03/10 08:17:57;;;;;;;2.97;1.30;;;3.30;99.90;;;;;;5004781;28;20092;-74
2023/03/10 08:20:22;;;;;;;2.72;1.25;;;3.40;99.90;;;;;;5007898;28;20518;-73
2023/03/10 08:22:48;;;;;;;3.67;1.60;;;3.40;99.90;;;;;;5004043;28;20022;-74
2023/03/10 08:25:14;;;;;;;3.03;1.42;;;3.40;99.90;;;;;;5006290;28;20029;-74
2023/03/10 08:27:40;;;;;;;2.25;1.33;;;3.40;99.90;;;;;;5006920;28;20033;-73
2023/03/10 08:30:06;;;;;;;3.63;2.08;;;3.50;99.90;;;;;;5005470;28;20030;-74
2023/03/10 08:32:32;;;;;;;2.55;1.13;;;3.50;99.90;;;;;;5014719;28;20060;-72
2023/03/10 08:34:58;;;;;;;3.22;1.40;;;3.40;99.90;;;;;;5003690;28;20111;-73
2023/03/10 08:37:23;;;;;;;1.80;1.00;;;3.40;99.90;;;;;;4996966;28;20045;-74
2023/03/10 08:39:52;;;;;;;2.80;1.30;;;3.50;99.90;;;;;;5005504;28;20034;-73
2023/03/10 08:42:17;;;;;;;3.00;1.45;;;3.50;99.90;;;;;;5003902;28;20038;-74
2023/03/10 08:44:43;;;;;;;3.97;1.48;;;3.50;99.90;;;;;;5001329;28;20552;-74
2023/03/10 08:47:09;;;;;;;2.25;1.08;;;3.50;99.90;;;;;;4999929;28;20041;-73
2023/03/10 08:49:35;;;;;;;3.83;1.17;;;3.50;99.90;;;;;;5002031;28;20037;-75
2023/03/10 08:52:01;;;;;;;1.52;0.90;;;3.60;99.90;;;;;;5003027;28;20394;-75
2023/03/10 08:54:26;;;;;;;2.83;1.55;;;3.60;99.90;;;;;;5004076;28;20049;-75
2023/03/10 08:56:53;;;;;;;3.05;1.30;;;3.60;99.90;;;;;;5003501;28;20127;-73
2023/03/10 08:59:19;;;;;;;3.10;1.50;;;3.60;99.90;;;;;;5003241;28;20478;-73
2023/03/10 09:01:45;;;;;;;2.75;1.23;;;3.60;99.90;;;;;;5003368;28;20663;-74
2023/03/10 09:04:11;;;;;;;2.17;1.13;;;3.60;99.90;;;;;;5001840;28;20064;-73
2023/03/10 09:06:37;;;;;;;1.77;0.90;;;3.60;99.90;;;;;;5003860;28;20494;-74
2023/03/10 09:09:04;;;;;;;4.07;0.80;;;3.50;99.90;;;;;;5002065;28;20061;-74
2023/03/10 09:11:33;;;;;;;2.65;1.10;;;3.50;99.90;;;;;;5003547;28;20034;-73
2023/03/10 09:14:00;;;;;;;3.20;1.20;;;3.50;99.90;;;;;;5001320;28;20045;-74
2023/03/10 09:16:27;;;;;;;2.38;1.17;;;3.50;99.90;;;;;;5001871;28;20125;-74
2023/03/10 09:18:56;;;;;;;6.50;1.30;;;3.50;99.90;;;;;;5003466;28;20040;-74
2023/03/10 09:21:22;;;;;;;3.30;1.45;;;3.50;99.90;;;;;;5001971;28;20030;-74
2023/03/10 09:23:51;;;;;;;6.88;1.40;;;3.50;99.90;;;;;;5003125;28;20049;-73
2023/03/10 09:26:18;;;;;;;3.97;1.42;;;3.50;99.90;;;;;;5003440;28;20112;-72
2023/03/10 09:28:44;;;;;;;4.88;1.10;;;3.40;99.90;;;;;;5002617;28;20034;-73
2023/03/10 09:31:19;;;;;;;2.05;0.88;;;3.40;99.90;;;;;;5001558;28;20049;-74
2023/03/10 09:33:45;;;;;;;2.17;0.93;;;3.40;99.90;;;;;;5002349;28;20038;-72
2023/03/10 09:36:10;;;;;;;1.92;0.90;;;3.40;99.90;;;;;;5001676;28;20031;-74
2023/03/10 09:38:40;;;;;;;2.10;1.05;;;3.40;99.90;;;;;;5001792;28;20030;-75
2023/03/10 09:41:39;;;;;;;2.60;1.02;;;3.30;99.90;;;;;;5019026;28;20053;-74
2023/03/10 09:44:26;;;;;;;1.65;0.73;;;3.40;99.90;;;;;;5018550;28;20045;-75
2023/03/10 09:47:22;;;;;;;1.88;1.30;;;3.40;99.90;;;;;;5005263;28;20089;-74
2023/03/10 09:50:11;;;;;;;3.72;1.00;;;3.40;99.90;;;;;;5021795;28;20037;-74
2023/03/10 09:53:32;;;;;;;1.40;0.98;;;3.40;99.90;;;;;;5005839;28;20398;-74
2023/03/10 09:55:58;;;;;;;1.63;0.70;;;3.50;99.90;;;;;;4981771;28;20080;-73
2023/03/10 09:58:41;;;;;;;1.67;0.80;;;3.40;99.90;;;;;;5005058;28;20057;-74
2023/03/10 10:01:17;;;;;;;1.60;0.70;;;3.50;99.90;;;;;;5003891;28;20045;-74
2023/03/10 10:03:54;;;;;;;1.92;0.70;;;3.50;99.90;;;;;;5005834;28;20208;-73
2023/03/10 10:06:26;;;;;;;3.38;0.60;;;3.50;99.90;;;;;;5005315;28;20030;-74
2023/03/10 10:08:58;;;;;;;1.80;0.85;;;3.50;99.90;;;;;;5006061;28;20033;-74
2023/03/10 10:11:24;;;;;;;1.35;0.82;;;3.50;99.90;;;;;;5004990;28;20037;-73
2023/03/10 10:13:53;;;;;;;2.15;0.98;;;3.50;99.90;;;;;;5006636;28;20034;-75
2023/03/10 10:16:29;;;;;;;1.25;0.50;;;3.40;99.90;;;;;;5007522;28;20092;-75
2023/03/10 10:19:23;;;;;;;1.25;0.52;;;3.40;99.90;;;;;;5007505;28;20474;-73
2023/03/10 10:22:18;;;;;;;0.85;0.43;;;3.50;99.90;;;;;;5003804;28;20095;-75
2023/03/10 10:25:00;;;;;;;0.95;0.40;;;3.50;99.90;;;;;;5004231;28;20053;-73
2023/03/10 10:27:26;;;;;;;1.10;0.80;;;3.50;99.90;;;;;;5018411;28;20513;-73
2023/03/10 10:29:52;;;;;;;1.17;0.60;;;3.50;99.90;;;;;;5005617;28;20038;-73
2023/03/10 10:32:17;;;;;;;1.15;0.52;;;3.40;99.90;;;;;;5018838;28;20068;-75
2023/03/10 10:34:44;;;;;;;1.15;0.70;;;3.40;99.90;;;;;;5010559;28;20049;-74
2023/03/10 10:37:41;;;;;;;1.38;0.52;;;3.40;99.90;;;;;;5007416;28;20030;-73
2023/03/10 10:40:26;;;;;;;1.38;0.55;;;3.40;99.90;;;;;;5009089;28;20042;-73
2023/03/10 10:42:54;;;;;;;1.33;0.60;;;3.40;99.90;;;;;;4997486;28;20038;-74
2023/03/10 10:45:31;;;;;;;1.00;0.40;;;3.40;99.90;;;;;;5002898;28;20053;-72
2023/03/10 10:47:57;;;;;;;1.88;0.70;;;3.40;99.90;;;;;;5004395;28;20026;-73
2023/03/10 10:50:31;;;;;;;0.80;0.35;;;3.40;99.90;;;;;;4998486;28;20092;-74
2023/03/10 10:53:14;;;;;;;2.53;0.47;;;3.40;99.90;;;;;;5000761;28;20034;-78
2023/03/10 10:55:42;;;;;;;0.70;0.30;;;3.40;99.90;;;;;;4999130;28;20042;-75
2023/03/10 10:58:32;;;;;;;1.15;0.60;;;3.40;99.90;;;;;;5003013;28;20530;-73
2023/03/10 11:01:01;;;;;;;1.42;0.57;;;3.40;99.90;;;;;;5000910;28;20026;-74
2023/03/10 11:03:34;;;;;;;9.48;0.80;;;3.40;99.90;;;;;;4997055;28;20454;-73
2023/03/10 11:06:01;;;;;;;1.60;0.65;;;3.40;99.90;;;;;;5006608;28;20027;-73
2023/03/10 11:08:31;;;;;;;1.50;0.60;;;3.40;99.90;;;;;;4998799;28;20169;-74
2023/03/10 11:11:29;;;;;;;1.40;0.57;;;3.40;99.90;;;;;;5012999;28;20418;-73
2023/03/10 11:14:00;;;;;;;3.20;0.73;;;3.40;99.90;;;;;;4998025;28;20034;-73
2023/03/10 11:16:43;;;;;;;1.65;0.85;;;3.40;99.90;;;;;;4997314;28;20038;-74
2023/03/10 11:19:16;;;;;;;2.30;0.82;;;3.40;99.90;;;;;;5027643;28;20518;-73
2023/03/10 11:21:53;;;;;;;1.08;0.60;;;3.30;99.90;;;;;;5029370;28;20041;-74
2023/03/10 11:24:32;;;;;;;1.98;0.82;;;3.30;99.90;;;;;;5007196;28;20038;-72
2023/03/10 11:27:14;;;;;;;2.30;1.02;;;3.30;99.90;;;;;;5005707;28;20027;-73
2023/03/10 11:30:25;;;;;;;2.20;0.95;;;3.40;99.90;;;;;;5006038;28;20033;-73
2023/03/10 11:33:13;;;;;;;1.95;0.82;;;3.50;99.90;;;;;;5003996;28;20152;-74
2023/03/10 11:35:45;;;;;;;1.65;1.00;;;3.50;99.90;;;;;;5008098;28;20041;-74
2023/03/10 11:38:10;;;;;;;2.70;1.48;;;3.50;99.90;;;;;;5003810;28;20022;-73
2023/03/10 11:40:55;;;;;;;3.83;1.00;;;3.40;99.90;;;;;;5009288;28;20030;-74
2023/03/10 11:43:47;;;;;;;1.35;0.63;;;3.40;99.90;;;;;;5007378;28;20610;-73
2023/03/10 11:46:18;;;;;;;1.75;0.88;;;3.40;99.90;;;;;;4985222;28;20038;-72
2023/03/10 11:49:00;;;;;;;2.45;1.15;;;3.40;99.90;;;;;;5027052;28;20084;-74
2023/03/10 11:51:35;;;;;;;1.67;0.68;;;3.50;99.90;;;;;;5002645;28;20030;-73
2023/03/10 11:54:11;;;;;;;1.85;0.82;;;3.50;99.90;;;;;;5004059;28;20045;-74
2023/03/10 11:56:38;;;;;;;2.90;1.15;;;3.50;99.90;;;;;;5008080;28;20390;-73
2023/03/10 11:59:15;;;;;;;3.40;1.30;;;3.50;99.90;;;;;;5005473;28;20025;-73
2023/03/10 12:01:47;;;;;;;5.35;1.02;;;3.50;99.90;;;;;;5002896;28;20139;-75
2023/03/10 12:04:21;;;;;;;2.28;0.95;;;3.40;99.90;;;;;;5006520;28;20495;-75
2023/03/10 12:07:03;;;;;;;2.58;1.08;;;3.40;99.90;;;;;;5005394;28;20040;-75
2023/03/10 12:09:28;;;;;;;2.78;1.48;;;3.40;99.90;;;;;;5004686;28;20046;-75
2023/03/10 12:11:55;;;;;;;2.42;1.20;;;3.40;99.90;;;;;;5007024;28;20053;-74
2023/03/10 12:14:23;;;;;;;1.95;1.05;;;3.40;99.90;;;;;;5002399;28;20037;-73
2023/03/10 12:16:51;;;;;;;2.20;1.27;;;3.30;99.90;;;;;;5003213;28;20113;-73
2023/03/10 12:19:16;;;;;;;2.20;0.95;;;3.30;99.90;;;;;;5002238;28;20042;-73
2023/03/10 12:21:42;;;;;;;7.57;1.80;;;3.40;99.90;;;;;;5000021;28;20108;-76
2023/03/10 12:24:35;;;;;;;2.10;1.27;;;3.40;99.90;;;;;;5004250;28;20038;-73
2023/03/10 12:27:03;;;;;;;4.07;1.48;;;3.40;99.90;;;;;;5003256;28;20034;-73
2023/03/10 12:29:35;;;;;;;4.30;2.22;;;3.40;99.90;;;;;;5004143;28;20057;-74
2023/03/10 12:32:01;;;;;;;2.08;1.27;;;3.50;99.90;;;;;;5003776;28;20053;-73
2023/03/10 12:34:32;;;;;;;3.47;1.63;;;3.40;99.90;;;;;;5004184;28;20033;-73
2023/03/10 12:37:10;;;;;;;2.38;1.10;;;3.40;99.90;;;;;;5002856;28;20129;-74
2023/03/10 12:39:43;;;;;;;4.05;1.67;;;3.30;99.90;;;;;;5004688;28;20036;-74
2023/03/10 12:42:38;;;;;;;3.00;1.20;;;3.40;99.90;;;;;;5002506;28;20042;-72
2023/03/10 12:45:27;;;;;;;2.30;0.98;;;3.30;99.90;;;;;;5002008;28;20117;-74
2023/03/10 12:48:15;;;;;;;5.65;2.10;;;3.20;99.90;;;;;;5002025;28;20415;-74
2023/03/10 12:50:53;;;;;;;3.65;1.58;;;3.30;99.90;;;;;;5003722;28;20383;-75
2023/03/10 12:53:45;;;;;;;2.42;1.40;;;3.30;99.90;;;;;;5002013;28;20095;-74
2023/03/10 12:56:11;;;;;;;3.53;1.10;;;3.30;99.90;;;;;;5001633;28;21375;-73
2023/03/10 12:58:40;;;;;;;4.55;1.80;;;3.30;99.90;;;;;;5004186;28;20033;-73
2023/03/10 13:01:10;;;;;;;3.53;1.52;;;3.30;99.90;;;;;;5001222;28;20033;-73
2023/03/10 13:03:45;;;;;;;4.13;2.03;;;3.30;99.90;;;;;;5003525;28;20165;-74
2023/03/10 13:06:17;;;;;;;3.35;1.45;;;3.30;99.90;;;;;;5001808;28;20549;-73
2023/03/10 13:08:58;;;;;;;3.00;1.65;;;3.30;99.90;;;;;;5001769;28;20069;-75
2023/03/10 13:11:39;;;;;;;3.22;1.50;;;3.30;99.90;;;;;;5001363;28;20064;-73